sensor_id;sensor_type;location;lat;lon;timestamp;pressure;altitude;pressure_sealevel;temperature;humidity
66945;BME280;53853;51.982;5.928;2023-11-18T00:01:52;102300.31;;;8.12;80.63
66945;BME280;53853;51.982;5.928;2023-11-18T00:04:22;102295.78;;;8.14;80.51
66945;BME280;53853;51.982;5.928;2023-11-18T00:06:51;102284.00;;;8.18;80.68
66945;BME280;53853;51.982;5.928;2023-11-18T00:09:21;102286.25;;;8.24;80.83
66945;BME280;53853;51.982;5.928;2023-11-18T00:11:54;102280.75;;;8.27;80.61
66945;BME280;53853;51.982;5.928;2023-11-18T00:14:24;102286.69;;;8.31;81.02
66945;BME280;53853;51.982;5.928;2023-11-18T00:16:53;102292.78;;;8.33;81.33
66945;BME280;53853;51.982;5.928;2023-11-18T00:19:25;102290.97;;;8.33;80.46
66945;BME280;53853;51.982;5.928;2023-11-18T00:21:55;102293.81;;;8.30;81.06
66945;BME280;53853;51.982;5.928;2023-11-18T00:24:25;102288.63;;;8.29;80.61
66945;BME280;53853;51.982;5.928;2023-11-18T00:26:57;102285.22;;;8.27;79.94
66945;BME280;53853;51.982;5.928;2023-11-18T00:29:32;102280.94;;;8.24;79.67
66945;BME280;53853;51.982;5.928;2023-11-18T00:32:05;102285.41;;;8.24;80.10
66945;BME280;53853;51.982;5.928;2023-11-18T00:34:35;102278.28;;;8.24;80.33
66945;BME280;53853;51.982;5.928;2023-11-18T00:37:05;102272.22;;;8.22;79.89
66945;BME280;53853;51.982;5.928;2023-11-18T00:39:36;102280.09;;;8.24;80.13
66945;BME280;53853;51.982;5.928;2023-11-18T00:42:09;102275.81;;;8.21;79.80
66945;BME280;53853;51.982;5.928;2023-11-18T00:44:39;102274.34;;;8.17;79.54
66945;BME280;53853;51.982;5.928;2023-11-18T00:47:09;102272.63;;;8.16;79.64
66945;BME280;53853;51.982;5.928;2023-11-18T00:49:39;102265.97;;;8.09;79.56
66945;BME280;53853;51.982;5.928;2023-11-18T00:52:09;102276.84;;;8.06;80.11
66945;BME280;53853;51.982;5.928;2023-11-18T00:54:39;102269.06;;;8.03;80.12
66945;BME280;53853;51.982;5.928;2023-11-18T00:57:11;102265.81;;;7.97;79.64
66945;BME280;53853;51.982;5.928;2023-11-18T00:59:42;102276.81;;;7.91;79.55
66945;BME280;53853;51.982;5.928;2023-11-18T01:02:12;102278.94;;;7.86;79.84
66945;BME280;53853;51.982;5.928;2023-11-18T01:04:44;102285.22;;;7.85;80.12
66945;BME280;53853;51.982;5.928;2023-11-18T01:07:15;102278.38;;;7.81;79.84
66945;BME280;53853;51.982;5.928;2023-11-18T01:09:45;102278.56;;;7.78;79.46
66945;BME280;53853;51.982;5.928;2023-11-18T01:12:18;102286.91;;;7.72;79.42
66945;BME280;53853;51.982;5.928;2023-11-18T01:14:48;102295.06;;;7.69;80.00
66945;BME280;53853;51.982;5.928;2023-11-18T01:17:18;102301.50;;;7.65;79.62
66945;BME280;53853;51.982;5.928;2023-11-18T01:19:48;102307.94;;;7.60;79.61
66945;BME280;53853;51.982;5.928;2023-11-18T01:22:18;102302.81;;;7.57;79.89
66945;BME280;53853;51.982;5.928;2023-11-18T01:24:48;102308.31;;;7.54;79.95
66945;BME280;53853;51.982;5.928;2023-11-18T01:27:20;102303.28;;;7.50;79.96
66945;BME280;53853;51.982;5.928;2023-11-18T01:29:50;102299.13;;;7.46;79.99
66945;BME280;53853;51.982;5.928;2023-11-18T01:32:20;102308.97;;;7.43;79.89
66945;BME280;53853;51.982;5.928;2023-11-18T01:34:50;102311.16;;;7.37;79.87
66945;BME280;53853;51.982;5.928;2023-11-18T01:37:20;102318.34;;;7.35;80.06
66945;BME280;53853;51.982;5.928;2023-11-18T01:39:51;102309.44;;;7.36;80.20
66945;BME280;53853;51.982;5.928;2023-11-18T01:42:23;102305.84;;;7.37;80.20
66945;BME280;53853;51.982;5.928;2023-11-18T01:44:53;102308.50;;;7.37;80.24
66945;BME280;53853;51.982;5.928;2023-11-18T01:47:23;102302.25;;;7.38;80.48
66945;BME280;53853;51.982;5.928;2023-11-18T01:49:53;102307.19;;;7.44;80.75
66945;BME280;53853;51.982;5.928;2023-11-18T01:52:25;102298.06;;;7.48;80.89
66945;BME280;53853;51.982;5.928;2023-11-18T01:54:56;102297.88;;;7.51;80.63
66945;BME280;53853;51.982;5.928;2023-11-18T01:57:29;102299.50;;;7.54;80.57
66945;BME280;53853;51.982;5.928;2023-11-18T02:00:01;102296.78;;;7.55;80.57
66945;BME280;53853;51.982;5.928;2023-11-18T02:02:40;102294.13;;;7.55;80.49
66945;BME280;53853;51.982;5.928;2023-11-18T02:05:10;102289.56;;;7.57;80.44
66945;BME280;53853;51.982;5.928;2023-11-18T02:07:40;102285.00;;;7.59;80.57
66945;BME280;53853;51.982;5.928;2023-11-18T02:10:10;102282.34;;;7.59;80.42
66945;BME280;53853;51.982;5.928;2023-11-18T02:12:53;102289.19;;;7.64;81.94
66945;BME280;53853;51.982;5.928;2023-11-18T02:15:26;102280.94;;;7.68;81.79
66945;BME280;53853;51.982;5.928;2023-11-18T02:17:59;102275.34;;;7.73;81.50
66945;BME280;53853;51.982;5.928;2023-11-18T02:20:32;102283.88;;;7.78;81.58
66945;BME280;53853;51.982;5.928;2023-11-18T02:23:03;102289.00;;;7.81;81.44
66945;BME280;53853;51.982;5.928;2023-11-18T02:28:08;102295.81;;;7.85;81.34
66945;BME280;53853;51.982;5.928;2023-11-18T02:30:39;102293.06;;;7.87;81.23
66945;BME280;53853;51.982;5.928;2023-11-18T02:33:14;102298.19;;;7.90;81.67
66945;BME280;53853;51.982;5.928;2023-11-18T02:35:48;102288.22;;;7.93;82.22
66945;BME280;53853;51.982;5.928;2023-11-18T02:38:30;102294.19;;;7.97;81.94
66945;BME280;53853;51.982;5.928;2023-11-18T02:41:09;102293.16;;;8.00;82.96
66945;BME280;53853;51.982;5.928;2023-11-18T02:43:42;102292.75;;;8.06;83.50
66945;BME280;53853;51.982;5.928;2023-11-18T02:46:12;102287.22;;;8.09;83.07
66945;BME280;53853;51.982;5.928;2023-11-18T02:48:44;102287.81;;;8.14;83.33
66945;BME280;53853;51.982;5.928;2023-11-18T02:51:14;102276.22;;;8.15;82.62
66945;BME280;53853;51.982;5.928;2023-11-18T02:53:43;102276.22;;;8.15;82.39
66945;BME280;53853;51.982;5.928;2023-11-18T02:56:13;102271.78;;;8.15;82.42
66945;BME280;53853;51.982;5.928;2023-11-18T02:58:48;102270.91;;;8.15;82.58
66945;BME280;53853;51.982;5.928;2023-11-18T03:01:18;102277.38;;;8.11;82.36
66945;BME280;53853;51.982;5.928;2023-11-18T03:03:48;102271.97;;;8.12;82.57
66945;BME280;53853;51.982;5.928;2023-11-18T03:06:17;102256.13;;;8.11;83.05
66945;BME280;53853;51.982;5.928;2023-11-18T03:08:47;102257.63;;;8.15;83.33
66945;BME280;53853;51.982;5.928;2023-11-18T03:11:18;102262.94;;;8.15;83.16
66945;BME280;53853;51.982;5.928;2023-11-18T03:13:52;102265.41;;;8.18;82.93
66945;BME280;53853;51.982;5.928;2023-11-18T03:16:21;102265.19;;;8.21;82.92
66945;BME280;53853;51.982;5.928;2023-11-18T03:18:51;102258.22;;;8.20;82.72
66945;BME280;53853;51.982;5.928;2023-11-18T03:21:21;102266.06;;;8.22;83.51
66945;BME280;53853;51.982;5.928;2023-11-18T03:23:53;102252.69;;;8.23;83.46
66945;BME280;53853;51.982;5.928;2023-11-18T03:26:22;102257.81;;;8.26;84.10
66945;BME280;53853;51.982;5.928;2023-11-18T03:28:55;102268.22;;;8.29;83.57
66945;BME280;53853;51.982;5.928;2023-11-18T03:31:25;102263.78;;;8.30;83.50
66945;BME280;53853;51.982;5.928;2023-11-18T03:33:55;102265.44;;;8.31;82.87
66945;BME280;53853;51.982;5.928;2023-11-18T03:36:25;102267.81;;;8.35;83.43
66945;BME280;53853;51.982;5.928;2023-11-18T03:38:55;102269.53;;;8.37;84.26
66945;BME280;53853;51.982;5.928;2023-11-18T03:41:25;102267.91;;;8.34;84.44
66945;BME280;53853;51.982;5.928;2023-11-18T03:43:57;102267.81;;;8.35;84.17
66945;BME280;53853;51.982;5.928;2023-11-18T03:46:27;102265.94;;;8.38;85.36
66945;BME280;53853;51.982;5.928;2023-11-18T03:49:01;102264.22;;;8.37;84.62
66945;BME280;53853;51.982;5.928;2023-11-18T03:51:31;102270.28;;;8.39;84.82
66945;BME280;53853;51.982;5.928;2023-11-18T03:54:01;102260.63;;;8.38;84.68
66945;BME280;53853;51.982;5.928;2023-11-18T03:56:31;102248.28;;;8.37;84.49
66945;BME280;53853;51.982;5.928;2023-11-18T03:59:03;102242.22;;;8.34;84.31
66945;BME280;53853;51.982;5.928;2023-11-18T04:01:33;102239.56;;;8.34;84.50
66945;BME280;53853;51.982;5.928;2023-11-18T04:04:05;102237.84;;;8.33;83.75
66945;BME280;53853;51.982;5.928;2023-11-18T04:06:34;102230.63;;;8.35;83.77
66945;BME280;53853;51.982;5.928;2023-11-18T04:09:04;102221.81;;;8.35;83.21
66945;BME280;53853;51.982;5.928;2023-11-18T04:11:36;102216.59;;;8.33;84.02
66945;BME280;53853;51.982;5.928;2023-11-18T04:14:08;102207.69;;;8.34;83.89
66945;BME280;53853;51.982;5.928;2023-11-18T04:16:38;102202.38;;;8.34;83.28
66945;BME280;53853;51.982;5.928;2023-11-18T04:19:08;102199.72;;;8.34;83.33
66945;BME280;53853;51.982;5.928;2023-11-18T04:21:38;102189.00;;;8.36;83.99
66945;BME280;53853;51.982;5.928;2023-11-18T04:24:09;102185.56;;;8.34;84.30
66945;BME280;53853;51.982;5.928;2023-11-18T04:26:39;102182.91;;;8.34;84.50
66945;BME280;53853;51.982;5.928;2023-11-18T04:29:11;102185.56;;;8.34;84.18
66945;BME280;53853;51.982;5.928;2023-11-18T04:31:41;102183.59;;;8.38;85.06
66945;BME280;53853;51.982;5.928;2023-11-18T04:34:11;102186.13;;;8.39;84.92
66945;BME280;53853;51.982;5.928;2023-11-18T04:36:41;102174.53;;;8.40;84.05
66945;BME280;53853;51.982;5.928;2023-11-18T04:39:11;102166.66;;;8.39;83.76
66945;BME280;53853;51.982;5.928;2023-11-18T04:41:42;102170.19;;;8.39;84.89
66945;BME280;53853;51.982;5.928;2023-11-18T04:44:14;102156.03;;;8.39;84.19
66945;BME280;53853;51.982;5.928;2023-11-18T04:46:45;102152.44;;;8.40;84.36
66945;BME280;53853;51.982;5.928;2023-11-18T04:49:15;102138.22;;;8.41;84.43
66945;BME280;53853;51.982;5.928;2023-11-18T04:51:45;102130.25;;;8.41;83.94
66945;BME280;53853;51.982;5.928;2023-11-18T04:54:15;102140.88;;;8.41;83.89
66945;BME280;53853;51.982;5.928;2023-11-18T04:56:46;102146.09;;;8.42;84.46
66945;BME280;53853;51.982;5.928;2023-11-18T04:59:18;102138.22;;;8.41;84.05
66945;BME280;53853;51.982;5.928;2023-11-18T05:01:48;102136.63;;;8.38;83.73
66945;BME280;53853;51.982;5.928;2023-11-18T05:04:19;102146.28;;;8.39;84.34
66945;BME280;53853;51.982;5.928;2023-11-18T05:06:49;102155.00;;;8.41;84.51
66945;BME280;53853;51.982;5.928;2023-11-18T05:09:19;102147.13;;;8.40;84.08
66945;BME280;53853;51.982;5.928;2023-11-18T05:11:49;102146.28;;;8.39;84.54
66945;BME280;53853;51.982;5.928;2023-11-18T05:14:22;102151.41;;;8.42;84.85
66945;BME280;53853;51.982;5.928;2023-11-18T05:16:53;102140.69;;;8.44;85.55
66945;BME280;53853;51.982;5.928;2023-11-18T05:19:22;102141.44;;;8.46;85.95
66945;BME280;53853;51.982;5.928;2023-11-18T05:21:52;102139.53;;;8.48;85.19
66945;BME280;53853;51.982;5.928;2023-11-18T05:24:22;102134.94;;;8.50;85.54
66945;BME280;53853;51.982;5.928;2023-11-18T05:26:52;102142.91;;;8.50;86.17
66945;BME280;53853;51.982;5.928;2023-11-18T05:29:25;102156.31;;;8.48;85.78
66945;BME280;53853;51.982;5.928;2023-11-18T05:31:54;102158.97;;;8.48;85.96
66945;BME280;53853;51.982;5.928;2023-11-18T05:34:24;102146.66;;;8.47;86.14
66945;BME280;53853;51.982;5.928;2023-11-18T05:36:54;102127.06;;;8.48;86.04
66945;BME280;53853;51.982;5.928;2023-11-18T05:39:24;102124.41;;;8.48;85.68
66945;BME280;53853;51.982;5.928;2023-11-18T05:41:57;102115.50;;;8.49;85.99
66945;BME280;53853;51.982;5.928;2023-11-18T05:44:30;102111.91;;;8.50;85.81
66945;BME280;53853;51.982;5.928;2023-11-18T05:47:04;102114.66;;;8.49;85.68
66945;BME280;53853;51.982;5.928;2023-11-18T05:49:34;102115.72;;;8.46;86.31
66945;BME280;53853;51.982;5.928;2023-11-18T05:52:05;102113.91;;;8.47;86.75
66945;BME280;53853;51.982;5.928;2023-11-18T05:54:35;102106.69;;;8.49;86.98
66945;BME280;53853;51.982;5.928;2023-11-18T05:57:05;102105.09;;;8.46;87.06
66945;BME280;53853;51.982;5.928;2023-11-18T05:59:37;102101.50;;;8.47;87.10
66945;BME280;53853;51.982;5.928;2023-11-18T06:02:07;102104.97;;;8.48;86.93
66945;BME280;53853;51.982;5.928;2023-11-18T06:04:39;102102.53;;;8.45;86.99
66945;BME280;53853;51.982;5.928;2023-11-18T06:07:09;102099.88;;;8.45;86.88
66945;BME280;53853;51.982;5.928;2023-11-18T06:09:40;102099.97;;;8.43;86.69
66945;BME280;53853;51.982;5.928;2023-11-18T06:12:10;102110.59;;;8.43;86.59
66945;BME280;53853;51.982;5.928;2023-11-18T06:14:42;102103.50;;;8.44;86.81
66945;BME280;53853;51.982;5.928;2023-11-18T06:17:13;102101.88;;;8.41;86.58
66945;BME280;53853;51.982;5.928;2023-11-18T06:19:44;102099.31;;;8.40;86.77
66945;BME280;53853;51.982;5.928;2023-11-18T06:22:14;102095.72;;;8.41;86.85
66945;BME280;53853;51.982;5.928;2023-11-18T06:24:44;102098.47;;;8.39;87.41
66945;BME280;53853;51.982;5.928;2023-11-18T06:27:14;102086.34;;;8.35;86.82
66945;BME280;53853;51.982;5.928;2023-11-18T06:29:49;102094.22;;;8.37;86.58
66945;BME280;53853;51.982;5.928;2023-11-18T06:32:21;102095.94;;;8.38;86.70
66945;BME280;53853;51.982;5.928;2023-11-18T06:34:52;102090.81;;;8.34;86.86
66945;BME280;53853;51.982;5.928;2023-11-18T06:37:22;102094.41;;;8.33;86.99
66945;BME280;53853;51.982;5.928;2023-11-18T06:39:52;102100.69;;;8.32;86.71
66945;BME280;53853;51.982;5.928;2023-11-18T06:42:22;102090.81;;;8.34;86.79
66945;BME280;53853;51.982;5.928;2023-11-18T06:44:54;102092.59;;;8.34;86.86
66945;BME280;53853;51.982;5.928;2023-11-18T06:47:24;102101.66;;;8.31;86.84
66945;BME280;53853;51.982;5.928;2023-11-18T06:49:57;102100.69;;;8.32;87.34
66945;BME280;53853;51.982;5.928;2023-11-18T06:52:27;102106.09;;;8.31;86.46
66945;BME280;53853;51.982;5.928;2023-11-18T06:54:57;102101.66;;;8.31;86.72
66945;BME280;53853;51.982;5.928;2023-11-18T06:57:27;102095.25;;;8.34;87.01
66945;BME280;53853;51.982;5.928;2023-11-18T07:00:00;102097.06;;;8.33;87.25
66945;BME280;53853;51.982;5.928;2023-11-18T07:02:34;102099.84;;;8.32;86.55
66945;BME280;53853;51.982;5.928;2023-11-18T07:05:05;102098.13;;;8.31;86.95
66945;BME280;53853;51.982;5.928;2023-11-18T07:07:35;102110.66;;;8.29;87.06
66945;BME280;53853;51.982;5.928;2023-11-18T07:10:06;102111.50;;;8.29;87.18
66945;BME280;53853;51.982;5.928;2023-11-18T07:12:39;102094.84;;;8.27;86.85
66945;BME280;53853;51.982;5.928;2023-11-18T07:15:12;102091.44;;;8.25;86.51
66945;BME280;53853;51.982;5.928;2023-11-18T07:17:43;102082.63;;;8.25;86.26
66945;BME280;53853;51.982;5.928;2023-11-18T07:20:13;102075.72;;;8.22;85.18
66945;BME280;53853;51.982;5.928;2023-11-18T07:22:43;102083.69;;;8.22;86.01
66945;BME280;53853;51.982;5.928;2023-11-18T07:25:13;102086.34;;;8.22;86.36
66945;BME280;53853;51.982;5.928;2023-11-18T07:27:44;102074.78;;;8.23;86.54
66945;BME280;53853;51.982;5.928;2023-11-18T07:30:16;102086.34;;;8.22;86.32
66945;BME280;53853;51.982;5.928;2023-11-18T07:32:46;102087.16;;;8.23;85.96
66945;BME280;53853;51.982;5.928;2023-11-18T07:35:17;102094.09;;;8.25;86.52
66945;BME280;53853;51.982;5.928;2023-11-18T07:37:47;102103.88;;;8.25;85.90
66945;BME280;53853;51.982;5.928;2023-11-18T07:40:17;102101.13;;;8.26;85.48
66945;BME280;53853;51.982;5.928;2023-11-18T07:42:55;102093.88;;;8.28;86.18
66945;BME280;53853;51.982;5.928;2023-11-18T07:45:35;102096.34;;;8.31;86.72
66945;BME280;53853;51.982;5.928;2023-11-18T07:48:07;102102.38;;;8.33;87.42
66945;BME280;53853;51.982;5.928;2023-11-18T07:50:39;102097.91;;;8.34;86.88
66945;BME280;53853;51.982;5.928;2023-11-18T07:53:11;102102.19;;;8.37;87.11
66945;BME280;53853;51.982;5.928;2023-11-18T07:55:41;102096.88;;;8.37;87.33
66945;BME280;53853;51.982;5.928;2023-11-18T07:58:12;102102.19;;;8.37;87.51
66945;BME280;53853;51.982;5.928;2023-11-18T08:00:44;102101.25;;;8.38;87.00
66945;BME280;53853;51.982;5.928;2023-11-18T08:03:14;102101.13;;;8.39;87.58
66945;BME280;53853;51.982;5.928;2023-11-18T08:05:46;102101.03;;;8.41;87.68
66945;BME280;53853;51.982;5.928;2023-11-18T08:08:16;102093.06;;;8.41;87.75
66945;BME280;53853;51.982;5.928;2023-11-18T08:10:46;102087.56;;;8.44;87.67
66945;BME280;53853;51.982;5.928;2023-11-18T08:13:17;102100.63;;;8.47;87.62
66945;BME280;53853;51.982;5.928;2023-11-18T08:15:49;102087.34;;;8.47;87.11
66945;BME280;53853;51.982;5.928;2023-11-18T08:18:19;102085.66;;;8.46;87.42
66945;BME280;53853;51.982;5.928;2023-11-18T08:20:50;102084.69;;;8.47;87.50
66945;BME280;53853;51.982;5.928;2023-11-18T08:23:20;102074.06;;;8.47;87.68
66945;BME280;53853;51.982;5.928;2023-11-18T08:25:50;102076.59;;;8.48;87.53
66945;BME280;53853;51.982;5.928;2023-11-18T08:28:20;102061.75;;;8.46;87.14
66945;BME280;53853;51.982;5.928;2023-11-18T08:30:53;102061.53;;;8.49;87.25
66945;BME280;53853;51.982;5.928;2023-11-18T08:33:23;102054.50;;;8.48;87.44
66945;BME280;53853;51.982;5.928;2023-11-18T08:35:55;102042.06;;;8.48;87.52
66945;BME280;53853;51.982;5.928;2023-11-18T08:38:25;102044.50;;;8.51;87.50
66945;BME280;53853;51.982;5.928;2023-11-18T08:40:55;102034.75;;;8.52;87.26
66945;BME280;53853;51.982;5.928;2023-11-18T08:43:25;102026.56;;;8.55;86.93
66945;BME280;53853;51.982;5.928;2023-11-18T08:45:58;102029.84;;;8.59;87.59
66945;BME280;53853;51.982;5.928;2023-11-18T08:48:28;102025.38;;;8.59;87.26
66945;BME280;53853;51.982;5.928;2023-11-18T08:51:01;102026.88;;;8.63;87.46
66945;BME280;53853;51.982;5.928;2023-11-18T08:53:34;102016.66;;;8.70;87.79
66945;BME280;53853;51.982;5.928;2023-11-18T08:56:08;102013.69;;;8.75;87.59
66945;BME280;53853;51.982;5.928;2023-11-18T08:58:42;102016.00;;;8.79;87.71
66945;BME280;53853;51.982;5.928;2023-11-18T09:01:14;102022.81;;;8.83;87.68
66945;BME280;53853;51.982;5.928;2023-11-18T09:03:44;102034.06;;;8.87;87.82
66945;BME280;53853;51.982;5.928;2023-11-18T09:06:15;102017.81;;;8.92;87.75
66945;BME280;53853;51.982;5.928;2023-11-18T09:08:53;102011.16;;;8.97;87.70
66945;BME280;53853;51.982;5.928;2023-11-18T09:11:24;102015.00;;;9.06;87.91
66945;BME280;53853;51.982;5.928;2023-11-18T09:13:59;102004.97;;;9.10;87.58
66945;BME280;53853;51.982;5.928;2023-11-18T09:16:33;102000.16;;;9.15;87.87
66945;BME280;53853;51.982;5.928;2023-11-18T09:19:06;101998.47;;;9.14;86.46
66945;BME280;53853;51.982;5.928;2023-11-18T09:21:36;101987.63;;;9.17;86.43
66945;BME280;53853;51.982;5.928;2023-11-18T09:24:07;101985.47;;;9.22;86.79
66945;BME280;53853;51.982;5.928;2023-11-18T09:26:39;101979.94;;;9.25;86.25
66945;BME280;53853;51.982;5.928;2023-11-18T09:29:11;101983.09;;;9.30;85.37
66945;BME280;53853;51.982;5.928;2023-11-18T09:31:49;101971.16;;;9.36;85.60
66945;BME280;53853;51.982;5.928;2023-11-18T09:34:19;101964.50;;;9.41;86.29
66945;BME280;53853;51.982;5.928;2023-11-18T09:36:54;101944.72;;;9.46;86.05
66945;BME280;53853;51.982;5.928;2023-11-18T09:39:25;101962.13;;;9.50;85.82
66945;BME280;53853;51.982;5.928;2023-11-18T09:42:13;101964.44;;;9.54;86.96
66945;BME280;53853;51.982;5.928;2023-11-18T09:44:46;101951.63;;;9.59;86.58
66945;BME280;53853;51.982;5.928;2023-11-18T09:47:21;101956.50;;;9.66;87.09
66945;BME280;53853;51.982;5.928;2023-11-18T09:49:57;101956.38;;;9.67;86.78
66945;BME280;53853;51.982;5.928;2023-11-18T09:52:31;101938.50;;;9.69;87.18
66945;BME280;53853;51.982;5.928;2023-11-18T09:55:07;101930.16;;;9.74;87.23
66945;BME280;53853;51.982;5.928;2023-11-18T09:57:44;101928.34;;;9.74;86.55
66945;BME280;53853;51.982;5.928;2023-11-18T10:00:26;101916.63;;;9.77;86.32
66945;BME280;53853;51.982;5.928;2023-11-18T10:03:02;101911.03;;;9.80;86.75
66945;BME280;53853;51.982;5.928;2023-11-18T10:05:35;101910.78;;;9.83;86.68
66945;BME280;53853;51.982;5.928;2023-11-18T10:08:06;101902.44;;;9.88;86.57
66945;BME280;53853;51.982;5.928;2023-11-18T10:10:36;101879.47;;;9.87;86.04
66945;BME280;53853;51.982;5.928;2023-11-18T10:13:12;101876.06;;;9.85;85.99
66945;BME280;53853;51.982;5.928;2023-11-18T10:15:50;101887.81;;;9.82;85.29
66945;BME280;53853;51.982;5.928;2023-11-18T10:18:26;101893.03;;;9.84;86.02
66945;BME280;53853;51.982;5.928;2023-11-18T10:20:58;101875.22;;;9.84;85.97
66945;BME280;53853;51.982;5.928;2023-11-18T10:23:28;101876.06;;;9.85;85.15
66945;BME280;53853;51.982;5.928;2023-11-18T10:26:01;101892.91;;;9.85;85.42
66945;BME280;53853;51.982;5.928;2023-11-18T10:28:32;101902.69;;;9.85;85.54
66945;BME280;53853;51.982;5.928;2023-11-18T10:31:06;101892.78;;;9.87;85.91
66945;BME280;53853;51.982;5.928;2023-11-18T10:33:39;101893.50;;;9.89;85.49
66945;BME280;53853;51.982;5.928;2023-11-18T10:36:17;101900.53;;;9.90;85.23
66945;BME280;53853;51.982;5.928;2023-11-18T10:38:50;101882.84;;;9.89;85.07
66945;BME280;53853;51.982;5.928;2023-11-18T10:41:23;101884.81;;;9.87;84.87
66945;BME280;53853;51.982;5.928;2023-11-18T10:44:06;101888.41;;;9.86;84.61
66945;BME280;53853;51.982;5.928;2023-11-18T10:46:41;101884.91;;;9.85;85.21
66945;BME280;53853;51.982;5.928;2023-11-18T10:49:23;101884.16;;;9.83;84.29
66945;BME280;53853;51.982;5.928;2023-11-18T10:51:53;101863.75;;;9.84;85.06
66945;BME280;53853;51.982;5.928;2023-11-18T10:54:24;101876.28;;;9.82;85.40
66945;BME280;53853;51.982;5.928;2023-11-18T10:56:54;101876.53;;;9.78;85.40
66945;BME280;53853;51.982;5.928;2023-11-18T10:59:25;101867.59;;;9.79;85.22
66945;BME280;53853;51.982;5.928;2023-11-18T11:01:55;101862.03;;;9.83;84.73
66945;BME280;53853;51.982;5.928;2023-11-18T11:04:27;101854.75;;;9.85;84.19
66945;BME280;53853;51.982;5.928;2023-11-18T11:07:13;101852.84;;;9.87;84.37
66945;BME280;53853;51.982;5.928;2023-11-18T11:09:45;101855.50;;;9.87;84.15
66945;BME280;53853;51.982;5.928;2023-11-18T11:12:17;101854.63;;;9.86;84.27
66945;BME280;53853;51.982;5.928;2023-11-18T11:14:57;101851.75;;;9.89;84.50
66945;BME280;53853;51.982;5.928;2023-11-18T11:17:31;101843.50;;;9.92;84.41
66945;BME280;53853;51.982;5.928;2023-11-18T11:20:07;101836.63;;;9.90;84.56
66945;BME280;53853;51.982;5.928;2023-11-18T11:23:01;101831.91;;;9.93;84.99
66945;BME280;53853;51.982;5.928;2023-11-18T11:25:43;101811.69;;;9.91;84.97
66945;BME280;53853;51.982;5.928;2023-11-18T11:28:22;101811.56;;;9.92;85.19
66945;BME280;53853;51.982;5.928;2023-11-18T11:30:58;101805.53;;;9.90;85.29
66945;BME280;53853;51.982;5.928;2023-11-18T11:33:36;101801.16;;;9.89;85.04
66945;BME280;53853;51.982;5.928;2023-11-18T11:36:15;101806.34;;;9.91;84.82
66945;BME280;53853;51.982;5.928;2023-11-18T11:38:50;101800.06;;;9.92;84.91
66945;BME280;53853;51.982;5.928;2023-11-18T11:41:24;101783.16;;;9.93;85.35
66945;BME280;53853;51.982;5.928;2023-11-18T11:43:55;101767.16;;;9.93;85.67
66945;BME280;53853;51.982;5.928;2023-11-18T11:46:27;101749.47;;;9.92;85.39
66945;BME280;53853;51.982;5.928;2023-11-18T11:49:01;101733.75;;;9.89;85.15
66945;BME280;53853;51.982;5.928;2023-11-18T11:51:47;101714.41;;;9.87;85.22
66945;BME280;53853;51.982;5.928;2023-11-18T11:54:23;101697.94;;;9.82;85.01
66945;BME280;53853;51.982;5.928;2023-11-18T11:56:57;101698.81;;;9.82;85.16
66945;BME280;53853;51.982;5.928;2023-11-18T11:59:36;101697.81;;;9.83;85.54
66945;BME280;53853;51.982;5.928;2023-11-18T12:02:25;101688.88;;;9.84;85.39
66945;BME280;53853;51.982;5.928;2023-11-18T12:04:56;101697.44;;;9.88;85.91
66945;BME280;53853;51.982;5.928;2023-11-18T12:07:40;101681.34;;;9.89;86.10
66945;BME280;53853;51.982;5.928;2023-11-18T12:10:13;101681.22;;;9.91;86.20
66945;BME280;53853;51.982;5.928;2023-11-18T12:12:48;101681.47;;;9.88;85.71
66945;BME280;53853;51.982;5.928;2023-11-18T12:15:48;101682.22;;;9.90;86.01
66945;BME280;53853;51.982;5.928;2023-11-18T12:18:21;101675.78;;;9.92;86.51
66945;BME280;53853;51.982;5.928;2023-11-18T12:20:51;101669.13;;;9.98;86.79
66945;BME280;53853;51.982;5.928;2023-11-18T12:23:27;101660.88;;;10.01;86.74
66945;BME280;53853;51.982;5.928;2023-11-18T12:25:58;101649.47;;;9.99;86.45
66945;BME280;53853;51.982;5.928;2023-11-18T12:28:30;101651.19;;;10.00;86.74
66945;BME280;53853;51.982;5.928;2023-11-18T12:31:02;101644.91;;;10.01;86.58
66945;BME280;53853;51.982;5.928;2023-11-18T12:34:02;101649.22;;;10.02;86.75
66945;BME280;53853;51.982;5.928;2023-11-18T12:36:56;101631.31;;;10.04;86.38
66945;BME280;53853;51.982;5.928;2023-11-18T12:39:59;101613.53;;;10.05;86.23
66945;BME280;53853;51.982;5.928;2023-11-18T12:43:04;101603.69;;;10.05;86.46
66945;BME280;53853;51.982;5.928;2023-11-18T12:45:44;101590.13;;;10.08;87.03
66945;BME280;53853;51.982;5.928;2023-11-18T12:48:22;101576.56;;;10.11;87.03
66945;BME280;53853;51.982;5.928;2023-11-18T12:50:54;101569.56;;;10.10;87.19
66945;BME280;53853;51.982;5.928;2023-11-18T12:53:25;101555.25;;;10.11;87.10
66945;BME280;53853;51.982;5.928;2023-11-18T12:55:58;101537.47;;;10.12;86.62
66945;BME280;53853;51.982;5.928;2023-11-18T12:58:29;101535.66;;;10.12;86.69
66945;BME280;53853;51.982;5.928;2023-11-18T13:01:00;101524.03;;;10.13;86.58
66945;BME280;53853;51.982;5.928;2023-11-18T13:03:30;101508.75;;;10.15;86.54
66945;BME280;53853;51.982;5.928;2023-11-18T13:06:01;101492.66;;;10.17;86.57
66945;BME280;53853;51.982;5.928;2023-11-18T13:08:32;101480.88;;;10.20;86.51
66945;BME280;53853;51.982;5.928;2023-11-18T13:11:06;101498.53;;;10.21;86.46
66945;BME280;53853;51.982;5.928;2023-11-18T13:13:42;101484.25;;;10.22;86.35
66945;BME280;53853;51.982;5.928;2023-11-18T13:16:13;101483.41;;;10.21;85.73
66945;BME280;53853;51.982;5.928;2023-11-18T13:18:45;101482.00;;;10.17;85.37
66945;BME280;53853;51.982;5.928;2023-11-18T13:21:17;101478.34;;;10.18;84.49
66945;BME280;53853;51.982;5.928;2023-11-18T13:23:48;101467.25;;;10.13;83.70
66945;BME280;53853;51.982;5.928;2023-11-18T13:26:22;101469.31;;;10.09;84.25
66945;BME280;53853;51.982;5.928;2023-11-18T13:28:52;101450.69;;;10.09;84.49
66945;BME280;53853;51.982;5.928;2023-11-18T13:31:22;101438.19;;;10.10;84.74